sensor_id;sensor_type;location;lat;lon;timestamp;pressure;altitude;pressure_sealevel;temperature;humidity
12172;BME280;6149;52.418;13.668;2023-05-13T00:01:37;101569.22;;;13.71;59.44
12172;BME280;6149;52.418;13.668;2023-05-13T00:04:06;101565.00;;;13.67;59.47
12172;BME280;6149;52.418;13.668;2023-05-13T00:06:34;101569.75;;;13.61;59.92
12172;BME280;6149;52.418;13.668;2023-05-13T00:09:03;101569.19;;;13.54;60.49
12172;BME280;6149;52.418;13.668;2023-05-13T00:11:31;101564.91;;;13.52;60.00
12172;BME280;6149;52.418;13.668;2023-05-13T00:13:58;101570.53;;;13.63;59.59
12172;BME280;6149;52.418;13.668;2023-05-13T00:16:29;101569.19;;;13.54;59.34
12172;BME280;6149;52.418;13.668;2023-05-13T00:18:58;101559.94;;;13.44;60.78
12172;BME280;6149;52.418;13.668;2023-05-13T00:21:25;101572.94;;;13.50;59.89
12172;BME280;6149;52.418;13.668;2023-05-13T00:23:53;101568.56;;;13.49;60.58
12172;BME280;6149;52.418;13.668;2023-05-13T00:26:21;101566.34;;;13.40;61.39
12172;BME280;6149;52.418;13.668;2023-05-13T00:28:48;101566.69;;;13.34;61.87
12172;BME280;6149;52.418;13.668;2023-05-13T00:31:15;101563.38;;;13.29;61.91
12172;BME280;6149;52.418;13.668;2023-05-13T00:33:42;101581.03;;;13.30;61.76
12172;BME280;6149;52.418;13.668;2023-05-13T00:36:08;101576.88;;;13.24;60.66
12172;BME280;6149;52.418;13.668;2023-05-13T00:38:38;101575.31;;;13.20;61.26
12172;BME280;6149;52.418;13.668;2023-05-13T00:41:06;101576.56;;;13.12;61.89
12172;BME280;6149;52.418;13.668;2023-05-13T00:43:35;101576.94;;;13.04;62.84
12172;BME280;6149;52.418;13.668;2023-05-13T00:46:03;101581.78;;;12.96;63.29
12172;BME280;6149;52.418;13.668;2023-05-13T00:48:32;101575.03;;;12.89;63.86
12172;BME280;6149;52.418;13.668;2023-05-13T00:51:00;101585.94;;;12.83;63.64
12172;BME280;6149;52.418;13.668;2023-05-13T00:53:31;101584.50;;;12.76;64.66
12172;BME280;6149;52.418;13.668;2023-05-13T00:56:00;101592.81;;;12.68;64.27
12172;BME280;6149;52.418;13.668;2023-05-13T00:58:30;101588.63;;;12.62;65.60
12172;BME280;6149;52.418;13.668;2023-05-13T01:01:09;101585.34;;;12.57;65.37
12172;BME280;6149;52.418;13.668;2023-05-13T01:03:45;101584.34;;;12.60;65.61
12172;BME280;6149;52.418;13.668;2023-05-13T01:06:22;101580.25;;;12.53;66.23
12172;BME280;6149;52.418;13.668;2023-05-13T01:09:02;101587.56;;;12.48;65.99
12172;BME280;6149;52.418;13.668;2023-05-13T01:11:37;101595.50;;;12.48;66.25
12172;BME280;6149;52.418;13.668;2023-05-13T01:14:10;101591.22;;;12.45;65.90
12172;BME280;6149;52.418;13.668;2023-05-13T01:16:47;101599.69;;;12.53;65.46
12172;BME280;6149;52.418;13.668;2023-05-13T01:19:25;101600.69;;;12.51;64.98
12172;BME280;6149;52.418;13.668;2023-05-13T01:22:03;101591.94;;;12.49;65.40
12172;BME280;6149;52.418;13.668;2023-05-13T01:24:31;101598.09;;;12.49;65.62
12172;BME280;6149;52.418;13.668;2023-05-13T01:26:59;101600.69;;;12.51;65.95
12172;BME280;6149;52.418;13.668;2023-05-13T01:29:28;101605.47;;;12.43;65.92
12172;BME280;6149;52.418;13.668;2023-05-13T01:31:58;101612.63;;;12.41;65.80
12172;BME280;6149;52.418;13.668;2023-05-13T01:34:26;101613.63;;;12.38;67.03
12172;BME280;6149;52.418;13.668;2023-05-13T01:36:57;101610.38;;;12.31;67.64
12172;BME280;6149;52.418;13.668;2023-05-13T01:39:33;101607.84;;;12.28;67.79
12172;BME280;6149;52.418;13.668;2023-05-13T01:42:03;101613.28;;;12.25;66.55
12172;BME280;6149;52.418;13.668;2023-05-13T01:44:32;101618.75;;;12.22;68.38
12172;BME280;6149;52.418;13.668;2023-05-13T01:46:59;101614.88;;;12.29;66.89
12172;BME280;6149;52.418;13.668;2023-05-13T01:49:27;101618.69;;;12.24;66.87
12172;BME280;6149;52.418;13.668;2023-05-13T01:51:57;101619.69;;;12.21;68.05
12172;BME280;6149;52.418;13.668;2023-05-13T01:54:24;101618.53;;;12.27;66.53
12172;BME280;6149;52.418;13.668;2023-05-13T01:56:52;101613.41;;;12.24;67.39
12172;BME280;6149;52.418;13.668;2023-05-13T01:59:21;101616.03;;;12.24;67.13
12172;BME280;6149;52.418;13.668;2023-05-13T02:01:50;101613.16;;;12.28;66.70
12172;BME280;6149;52.418;13.668;2023-05-13T02:04:16;101618.72;;;12.43;65.17
12172;BME280;6149;52.418;13.668;2023-05-13T02:06:44;101619.19;;;12.32;66.83
12172;BME280;6149;52.418;13.668;2023-05-13T02:09:13;101619.56;;;12.24;67.48
12172;BME280;6149;52.418;13.668;2023-05-13T02:11:40;101620.13;;;12.31;65.71
12172;BME280;6149;52.418;13.668;2023-05-13T02:14:08;101624.00;;;12.24;66.16
12172;BME280;6149;52.418;13.668;2023-05-13T02:16:35;101619.56;;;12.24;66.44
12172;BME280;6149;52.418;13.668;2023-05-13T02:19:02;101619.69;;;12.21;65.55
12172;BME280;6149;52.418;13.668;2023-05-13T02:21:30;101617.09;;;12.20;67.09
12172;BME280;6149;52.418;13.668;2023-05-13T02:23:58;101616.81;;;12.26;66.62
12172;BME280;6149;52.418;13.668;2023-05-13T02:26:27;101610.88;;;12.21;67.13
12172;BME280;6149;52.418;13.668;2023-05-13T02:29:02;101619.25;;;12.30;65.62
12172;BME280;6149;52.418;13.668;2023-05-13T02:31:32;101627.59;;;12.23;65.85
12172;BME280;6149;52.418;13.668;2023-05-13T02:34:00;101626.84;;;12.19;66.26
12172;BME280;6149;52.418;13.668;2023-05-13T02:36:28;101625.78;;;12.23;65.35
12172;BME280;6149;52.418;13.668;2023-05-13T02:38:56;101629.53;;;12.38;67.20
12172;BME280;6149;52.418;13.668;2023-05-13T02:41:29;101626.56;;;12.25;66.48
12172;BME280;6149;52.418;13.668;2023-05-13T02:43:58;101633.00;;;12.20;65.99
12172;BME280;6149;52.418;13.668;2023-05-13T02:46:25;101631.69;;;12.10;67.71
12172;BME280;6149;52.418;13.668;2023-05-13T02:48:53;101630.94;;;12.06;67.15
12172;BME280;6149;52.418;13.668;2023-05-13T02:51:21;101640.81;;;12.02;68.33
12172;BME280;6149;52.418;13.668;2023-05-13T02:53:48;101637.50;;;11.97;67.89
12172;BME280;6149;52.418;13.668;2023-05-13T02:56:17;101635.31;;;12.27;66.20
12172;BME280;6149;52.418;13.668;2023-05-13T02:58:45;101638.34;;;11.98;67.82
12172;BME280;6149;52.418;13.668;2023-05-13T03:01:15;101632.66;;;11.87;67.86
12172;BME280;6149;52.418;13.668;2023-05-13T03:03:42;101635.56;;;11.81;69.56
12172;BME280;6149;52.418;13.668;2023-05-13T03:06:11;101639.81;;;11.85;68.46
12172;BME280;6149;52.418;13.668;2023-05-13T03:08:37;101639.81;;;11.85;67.99
12172;BME280;6149;52.418;13.668;2023-05-13T03:11:04;101635.72;;;11.76;70.31
12172;BME280;6149;52.418;13.668;2023-05-13T03:13:30;101637.75;;;11.69;70.23
12172;BME280;6149;52.418;13.668;2023-05-13T03:16:01;101635.97;;;11.70;69.39
12172;BME280;6149;52.418;13.668;2023-05-13T03:18:29;101640.53;;;11.66;69.09
12172;BME280;6149;52.418;13.668;2023-05-13T03:20:57;101636.41;;;11.59;69.64
12172;BME280;6149;52.418;13.668;2023-05-13T03:23:27;101642.56;;;11.60;68.87
12172;BME280;6149;52.418;13.668;2023-05-13T03:25:55;101640.84;;;11.59;69.65
12172;BME280;6149;52.418;13.668;2023-05-13T03:28:22;101648.03;;;11.55;69.77
12172;BME280;6149;52.418;13.668;2023-05-13T03:30:48;101649.84;;;11.55;70.83
12172;BME280;6149;52.418;13.668;2023-05-13T03:33:15;101650.03;;;11.50;70.88
12172;BME280;6149;52.418;13.668;2023-05-13T03:35:44;101643.03;;;11.49;71.72
12172;BME280;6149;52.418;13.668;2023-05-13T03:38:12;101652.00;;;11.45;71.69
12172;BME280;6149;52.418;13.668;2023-05-13T03:40:40;101658.13;;;11.47;70.46
12172;BME280;6149;52.418;13.668;2023-05-13T03:43:08;101657.78;;;11.55;71.11
12172;BME280;6149;52.418;13.668;2023-05-13T03:45:36;101652.53;;;11.53;71.73
12172;BME280;6149;52.418;13.668;2023-05-13T03:48:04;101659.97;;;11.45;71.54
12172;BME280;6149;52.418;13.668;2023-05-13T03:50:32;101664.28;;;11.48;71.68
12172;BME280;6149;52.418;13.668;2023-05-13T03:53:00;101662.53;;;11.47;71.24
12172;BME280;6149;52.418;13.668;2023-05-13T03:55:29;101665.19;;;11.47;71.12
12172;BME280;6149;52.418;13.668;2023-05-13T03:57:59;101677.69;;;11.43;71.16
12172;BME280;6149;52.418;13.668;2023-05-13T04:00:36;101671.88;;;11.55;71.79
12172;BME280;6149;52.418;13.668;2023-05-13T04:03:03;101674.84;;;11.69;69.33
12172;BME280;6149;52.418;13.668;2023-05-13T04:05:31;101673.38;;;11.62;69.24
12172;BME280;6149;52.418;13.668;2023-05-13T04:08:01;101683.16;;;11.60;69.40
12172;BME280;6149;52.418;13.668;2023-05-13T04:10:29;101673.88;;;11.50;70.38
12172;BME280;6149;52.418;13.668;2023-05-13T04:13:01;101677.41;;;11.51;70.80
12172;BME280;6149;52.418;13.668;2023-05-13T04:15:28;101680.03;;;11.51;70.12
12172;BME280;6149;52.418;13.668;2023-05-13T04:17:56;101685.25;;;11.52;69.96
12172;BME280;6149;52.418;13.668;2023-05-13T04:20:24;101685.47;;;11.48;70.58
12172;BME280;6149;52.418;13.668;2023-05-13T04:22:51;101688.59;;;11.57;69.53
12172;BME280;6149;52.418;13.668;2023-05-13T04:25:17;101692.16;;;11.56;70.52
12172;BME280;6149;52.418;13.668;2023-05-13T04:27:44;101697.44;;;11.56;70.89
12172;BME280;6149;52.418;13.668;2023-05-13T04:30:14;101697.66;;;11.73;69.87
12172;BME280;6149;52.418;13.668;2023-05-13T04:32:41;101699.16;;;11.81;69.04
12172;BME280;6149;52.418;13.668;2023-05-13T04:35:08;101697.59;;;11.75;69.46
12172;BME280;6149;52.418;13.668;2023-05-13T04:37:35;101702.09;;;11.73;69.20
12172;BME280;6149;52.418;13.668;2023-05-13T04:40:05;101705.28;;;11.83;69.82
12172;BME280;6149;52.418;13.668;2023-05-13T04:42:32;101701.97;;;11.98;67.98
12172;BME280;6149;52.418;13.668;2023-05-13T04:45:00;101709.44;;;11.88;69.64
12172;BME280;6149;52.418;13.668;2023-05-13T04:47:29;101708.44;;;11.91;69.26
12172;BME280;6149;52.418;13.668;2023-05-13T04:50:00;101709.31;;;11.91;69.17
12172;BME280;6149;52.418;13.668;2023-05-13T04:52:28;101709.06;;;11.97;69.63
12172;BME280;6149;52.418;13.668;2023-05-13T04:54:56;101712.28;;;12.05;68.43
12172;BME280;6149;52.418;13.668;2023-05-13T04:57:25;101712.38;;;12.24;67.26
12172;BME280;6149;52.418;13.668;2023-05-13T04:59:52;101720.47;;;12.21;67.11
12172;BME280;6149;52.418;13.668;2023-05-13T05:02:21;101721.63;;;12.34;65.83
12172;BME280;6149;52.418;13.668;2023-05-13T05:04:49;101719.78;;;12.36;66.08
12172;BME280;6149;52.418;13.668;2023-05-13T05:07:16;101725.06;;;12.58;66.45
12172;BME280;6149;52.418;13.668;2023-05-13T05:09:44;101721.25;;;12.64;64.73
12172;BME280;6149;52.418;13.668;2023-05-13T05:12:10;101728.56;;;12.59;64.81
12172;BME280;6149;52.418;13.668;2023-05-13T05:14:39;101719.06;;;12.73;64.27
12172;BME280;6149;52.418;13.668;2023-05-13T05:17:06;101724.63;;;12.67;63.75
12172;BME280;6149;52.418;13.668;2023-05-13T05:19:34;101727.72;;;12.97;63.57
12172;BME280;6149;52.418;13.668;2023-05-13T05:22:04;101729.28;;;12.83;63.73
12172;BME280;6149;52.418;13.668;2023-05-13T05:24:33;101725.16;;;12.96;62.09
12172;BME280;6149;52.418;13.668;2023-05-13T05:27:01;101722.63;;;12.93;63.37
12172;BME280;6149;52.418;13.668;2023-05-13T05:29:28;101724.25;;;13.16;63.48
12172;BME280;6149;52.418;13.668;2023-05-13T05:31:56;101730.22;;;13.39;60.30
12172;BME280;6149;52.418;13.668;2023-05-13T05:34:26;101725.91;;;13.37;61.47
12172;BME280;6149;52.418;13.668;2023-05-13T05:36:56;101733.03;;;13.55;61.14
12172;BME280;6149;52.418;13.668;2023-05-13T05:39:26;101744.47;;;13.75;59.97
12172;BME280;6149;52.418;13.668;2023-05-13T05:41:55;101735.91;;;14.05;57.33
12172;BME280;6149;52.418;13.668;2023-05-13T05:44:21;101733.53;;;14.17;57.66
12172;BME280;6149;52.418;13.668;2023-05-13T05:46:48;101739.53;;;14.39;57.73
12172;BME280;6149;52.418;13.668;2023-05-13T05:49:17;101744.63;;;14.61;56.86
12172;BME280;6149;52.418;13.668;2023-05-13T05:51:47;101743.44;;;14.84;56.15
12172;BME280;6149;52.418;13.668;2023-05-13T05:54:13;101744.81;;;15.08;53.81
12172;BME280;6149;52.418;13.668;2023-05-13T05:56:41;101745.50;;;15.27;54.93
12172;BME280;6149;52.418;13.668;2023-05-13T05:59:09;101741.22;;;15.58;53.94
12172;BME280;6149;52.418;13.668;2023-05-13T06:01:37;101741.53;;;15.83;53.72
12172;BME280;6149;52.418;13.668;2023-05-13T06:04:04;101748.78;;;16.27;50.48
12172;BME280;6149;52.418;13.668;2023-05-13T06:06:31;101750.97;;;16.34;50.31
12172;BME280;6149;52.418;13.668;2023-05-13T06:09:00;101749.03;;;16.52;49.36
12172;BME280;6149;52.418;13.668;2023-05-13T06:11:27;101742.53;;;16.72;50.83
12172;BME280;6149;52.418;13.668;2023-05-13T06:14:09;101746.66;;;16.92;48.68
12172;BME280;6149;52.418;13.668;2023-05-13T06:16:37;101740.47;;;17.06;48.25
12172;BME280;6149;52.418;13.668;2023-05-13T06:19:04;101741.13;;;17.23;48.18
12172;BME280;6149;52.418;13.668;2023-05-13T06:21:33;101735.41;;;17.44;47.79
12172;BME280;6149;52.418;13.668;2023-05-13T06:24:02;101732.59;;;17.59;46.99
12172;BME280;6149;52.418;13.668;2023-05-13T06:26:30;101736.25;;;17.85;46.40
12172;BME280;6149;52.418;13.668;2023-05-13T06:29:03;101736.88;;;18.03;45.43
12172;BME280;6149;52.418;13.668;2023-05-13T06:31:30;101734.06;;;18.19;44.42
12172;BME280;6149;52.418;13.668;2023-05-13T06:33:59;101735.44;;;18.24;44.61
12172;BME280;6149;52.418;13.668;2023-05-13T06:36:27;101745.34;;;18.36;44.69
12172;BME280;6149;52.418;13.668;2023-05-13T06:38:56;101739.81;;;18.52;44.72
12172;BME280;6149;52.418;13.668;2023-05-13T06:41:25;101739.84;;;18.65;43.54
12172;BME280;6149;52.418;13.668;2023-05-13T06:43:51;101731.59;;;18.81;44.23
12172;BME280;6149;52.418;13.668;2023-05-13T06:46:20;101730.88;;;18.91;44.25
12172;BME280;6149;52.418;13.668;2023-05-13T06:48:48;101730.63;;;19.07;43.42
12172;BME280;6149;52.418;13.668;2023-05-13T06:51:16;101724.63;;;19.16;43.42
12172;BME280;6149;52.418;13.668;2023-05-13T06:53:44;101716.91;;;18.99;42.21
12172;BME280;6149;52.418;13.668;2023-05-13T06:56:11;101724.72;;;19.15;43.64
12172;BME280;6149;52.418;13.668;2023-05-13T06:58:38;101722.13;;;19.26;41.36
12172;BME280;6149;52.418;13.668;2023-05-13T07:01:04;101720.06;;;19.42;42.29
12172;BME280;6149;52.418;13.668;2023-05-13T07:03:33;101721.88;;;19.54;41.43
12172;BME280;6149;52.418;13.668;2023-05-13T07:06:00;101717.69;;;19.50;40.19
12172;BME280;6149;52.418;13.668;2023-05-13T07:08:29;101718.75;;;19.60;40.37
12172;BME280;6149;52.418;13.668;2023-05-13T07:10:56;101712.94;;;19.66;39.69
12172;BME280;6149;52.418;13.668;2023-05-13T07:13:26;101714.59;;;19.80;39.03
12172;BME280;6149;52.418;13.668;2023-05-13T07:15:55;101710.91;;;20.05;39.77
12172;BME280;6149;52.418;13.668;2023-05-13T07:18:21;101709.81;;;20.31;38.89
12172;BME280;6149;52.418;13.668;2023-05-13T07:20:50;101718.09;;;20.28;39.12
12172;BME280;6149;52.418;13.668;2023-05-13T07:23:22;101710.34;;;20.13;36.84
12172;BME280;6149;52.418;13.668;2023-05-13T07:25:48;101711.72;;;20.18;37.10
12172;BME280;6149;52.418;13.668;2023-05-13T07:28:15;101711.41;;;20.34;36.66
12172;BME280;6149;52.418;13.668;2023-05-13T07:30:43;101704.63;;;20.17;36.00
12172;BME280;6149;52.418;13.668;2023-05-13T07:33:12;101709.66;;;20.22;36.60
12172;BME280;6149;52.418;13.668;2023-05-13T07:35:40;101700.41;;;20.26;36.75
12172;BME280;6149;52.418;13.668;2023-05-13T07:38:08;101709.16;;;20.41;35.69
12172;BME280;6149;52.418;13.668;2023-05-13T07:40:36;101701.44;;;20.47;35.77
12172;BME280;6149;52.418;13.668;2023-05-13T07:43:04;101717.22;;;20.52;35.93
12172;BME280;6149;52.418;13.668;2023-05-13T07:45:32;101694.63;;;20.54;37.46
12172;BME280;6149;52.418;13.668;2023-05-13T07:47:59;101701.63;;;20.68;36.67
12172;BME280;6149;52.418;13.668;2023-05-13T07:50:27;101696.75;;;20.73;35.68
12172;BME280;6149;52.418;13.668;2023-05-13T07:53:02;101699.31;;;20.86;37.52
12172;BME280;6149;52.418;13.668;2023-05-13T07:55:34;101709.50;;;21.05;35.17
12172;BME280;6149;52.418;13.668;2023-05-13T07:58:02;101701.03;;;20.98;36.02
12172;BME280;6149;52.418;13.668;2023-05-13T08:00:31;101707.84;;;20.57;36.02
12172;BME280;6149;52.418;13.668;2023-05-13T08:03:01;101702.72;;;20.65;35.59
12172;BME280;6149;52.418;13.668;2023-05-13T08:05:31;101708.00;;;20.78;37.50
12172;BME280;6149;52.418;13.668;2023-05-13T08:08:02;101705.81;;;20.94;36.74
12172;BME280;6149;52.418;13.668;2023-05-13T08:10:32;101697.63;;;21.07;37.34
12172;BME280;6149;52.418;13.668;2023-05-13T08:13:00;101707.66;;;21.16;38.04
12172;BME280;6149;52.418;13.668;2023-05-13T08:15:26;101690.78;;;21.25;36.18
12172;BME280;6149;52.418;13.668;2023-05-13T08:17:55;101698.72;;;21.38;36.60
12172;BME280;6149;52.418;13.668;2023-05-13T08:20:22;101712.91;;;21.51;35.41
12172;BME280;6149;52.418;13.668;2023-05-13T08:22:55;101714.50;;;21.43;36.43
12172;BME280;6149;52.418;13.668;2023-05-13T08:25:23;101716.06;;;21.56;37.11
12172;BME280;6149;52.418;13.668;2023-05-13T08:27:54;101702.81;;;21.76;36.29
12172;BME280;6149;52.418;13.668;2023-05-13T08:30:21;101711.91;;;22.07;36.70
12172;BME280;6149;52.418;13.668;2023-05-13T08:32:49;101711.16;;;22.16;35.14
12172;BME280;6149;52.418;13.668;2023-05-13T08:35:16;101728.31;;;22.35;34.84
12172;BME280;6149;52.418;13.668;2023-05-13T08:37:43;101712.09;;;22.26;33.33
12172;BME280;6149;52.418;13.668;2023-05-13T08:40:10;101722.28;;;22.43;33.46
12172;BME280;6149;52.418;13.668;2023-05-13T08:42:38;101717.53;;;22.35;32.54
12172;BME280;6149;52.418;13.668;2023-05-13T08:45:10;101720.25;;;22.56;32.50
12172;BME280;6149;52.418;13.668;2023-05-13T08:47:42;101723.88;;;22.87;32.91
12172;BME280;6149;52.418;13.668;2023-05-13T08:50:21;101715.44;;;22.60;32.28
12172;BME280;6149;52.418;13.668;2023-05-13T08:52:49;101702.09;;;22.79;32.33
12172;BME280;6149;52.418;13.668;2023-05-13T08:55:17;101702.22;;;22.98;31.14
12172;BME280;6149;52.418;13.668;2023-05-13T08:57:44;101702.09;;;23.10;30.53
12172;BME280;6149;52.418;13.668;2023-05-13T09:00:14;101709.91;;;23.13;29.33
12172;BME280;6149;52.418;13.668;2023-05-13T09:02:42;101700.34;;;23.29;28.59
12172;BME280;6149;52.418;13.668;2023-05-13T09:05:09;101705.19;;;23.45;28.25
12172;BME280;6149;52.418;13.668;2023-05-13T09:07:36;101705.88;;;23.68;27.49
12172;BME280;6149;52.418;13.668;2023-05-13T09:10:06;101706.84;;;23.77;27.65
12172;BME280;6149;52.418;13.668;2023-05-13T09:12:44;101702.03;;;24.19;27.11
12172;BME280;6149;52.418;13.668;2023-05-13T09:15:15;101711.31;;;24.26;26.24
12172;BME280;6149;52.418;13.668;2023-05-13T09:17:44;101698.78;;;23.96;27.32
12172;BME280;6149;52.418;13.668;2023-05-13T09:20:14;101699.91;;;23.93;27.79
12172;BME280;6149;52.418;13.668;2023-05-13T09:22:45;101699.78;;;23.95;26.15
12172;BME280;6149;52.418;13.668;2023-05-13T09:25:13;101701.78;;;24.12;26.53
12172;BME280;6149;52.418;13.668;2023-05-13T09:27:42;101697.06;;;24.14;25.94
12172;BME280;6149;52.418;13.668;2023-05-13T09:30:12;101704.47;;;24.22;25.71
12172;BME280;6149;52.418;13.668;2023-05-13T09:32:41;101694.25;;;24.06;26.05
12172;BME280;6149;52.418;13.668;2023-05-13T09:35:12;101681.59;;;24.07;26.55
12172;BME280;6149;52.418;13.668;2023-05-13T09:37:43;101697.66;;;24.27;25.16
12172;BME280;6149;52.418;13.668;2023-05-13T09:40:12;101696.81;;;24.37;27.21
12172;BME280;6149;52.418;13.668;2023-05-13T09:42:41;101684.84;;;24.10;24.18
12172;BME280;6149;52.418;13.668;2023-05-13T09:45:14;101694.69;;;24.40;26.00
12172;BME280;6149;52.418;13.668;2023-05-13T09:47:42;101687.25;;;24.23;25.11
12172;BME280;6149;52.418;13.668;2023-05-13T09:50:12;101687.25;;;24.23;25.20
12172;BME280;6149;52.418;13.668;2023-05-13T09:52:39;101688.94;;;24.14;24.82
12172;BME280;6149;52.418;13.668;2023-05-13T09:55:08;101676.59;;;24.02;23.95
12172;BME280;6149;52.418;13.668;2023-05-13T09:57:35;101676.59;;;24.02;24.27
12172;BME280;6149;52.418;13.668;2023-05-13T10:00:05;101680.44;;;24.28;24.86
12172;BME280;6149;52.418;13.668;2023-05-13T10:02:34;101673.91;;;24.31;23.75
12172;BME280;6149;52.418;13.668;2023-05-13T10:05:01;101669.78;;;24.37;24.42
12172;BME280;6149;52.418;13.668;2023-05-13T10:07:30;101661.81;;;24.25;23.87
12172;BME280;6149;52.418;13.668;2023-05-13T10:10:00;101675.28;;;24.16;24.65
12172;BME280;6149;52.418;13.668;2023-05-13T10:12:33;101675.44;;;24.14;23.27
12172;BME280;6149;52.418;13.668;2023-05-13T10:15:04;101668.03;;;24.16;25.22
12172;BME280;6149;52.418;13.668;2023-05-13T10:17:34;101665.09;;;24.00;23.66
12172;BME280;6149;52.418;13.668;2023-05-13T10:20:04;101661.25;;;23.93;24.56
12172;BME280;6149;52.418;13.668;2023-05-13T10:22:32;101667.50;;;23.74;24.99
12172;BME280;6149;52.418;13.668;2023-05-13T10:25:01;101662.66;;;23.87;25.25
12172;BME280;6149;52.418;13.668;2023-05-13T10:27:31;101642.34;;;23.74;24.74
12172;BME280;6149;52.418;13.668;2023-05-13T10:30:01;101657.09;;;23.60;25.40
12172;BME280;6149;52.418;13.668;2023-05-13T10:32:37;101658.09;;;23.69;25.50
12172;BME280;6149;52.418;13.668;2023-05-13T10:35:09;101650.84;;;23.69;25.32
12172;BME280;6149;52.418;13.668;2023-05-13T10:38:00;101655.19;;;23.51;25.40
12172;BME280;6149;52.418;13.668;2023-05-13T10:41:02;101655.81;;;23.14;25.37
12172;BME280;6149;52.418;13.668;2023-05-13T10:43:36;101650.78;;;22.90;26.05
12172;BME280;6149;52.418;13.668;2023-05-13T10:46:05;101651.94;;;22.97;26.28
12172;BME280;6149;52.418;13.668;2023-05-13T10:48:48;101640.69;;;22.92;25.66
12172;BME280;6149;52.418;13.668;2023-05-13T10:51:17;101652.28;;;22.83;26.24
12172;BME280;6149;52.418;13.668;2023-05-13T10:53:50;101656.56;;;22.86;26.69
12172;BME280;6149;52.418;13.668;2023-05-13T10:56:19;101651.63;;;22.70;26.54
12172;BME280;6149;52.418;13.668;2023-05-13T10:58:56;101649.63;;;22.62;25.21
12172;BME280;6149;52.418;13.668;2023-05-13T11:01:26;101641.34;;;22.54;27.23
12172;BME280;6149;52.418;13.668;2023-05-13T11:04:01;101649.78;;;22.71;26.49
12172;BME280;6149;52.418;13.668;2023-05-13T11:06:34;101650.47;;;22.63;25.88
12172;BME280;6149;52.418;13.668;2023-05-13T11:09:04;101639.97;;;22.39;25.58
12172;BME280;6149;52.418;13.668;2023-05-13T11:11:34;101637.19;;;22.29;27.20
12172;BME280;6149;52.418;13.668;2023-05-13T11:14:08;101646.84;;;22.32;26.18
12172;BME280;6149;52.418;13.668;2023-05-13T11:16:44;101642.53;;;22.20;26.87
12172;BME280;6149;52.418;13.668;2023-05-13T11:19:21;101642.94;;;22.15;25.41
12172;BME280;6149;52.418;13.668;2023-05-13T11:21:51;101633.53;;;22.10;27.08
12172;BME280;6149;52.418;13.668;2023-05-13T11:24:21;101633.72;;;22.18;27.22
12172;BME280;6149;52.418;13.668;2023-05-13T11:26:49;101635.66;;;22.27;27.72
12172;BME280;6149;52.418;13.668;2023-05-13T11:29:28;101654.03;;;22.22;26.38
12172;BME280;6149;52.418;13.668;2023-05-13T11:32:01;101641.59;;;22.10;27.36
12172;BME280;6149;52.418;13.668;2023-05-13T11:34:33;101634.91;;;22.04;26.56
12172;BME280;6149;52.418;13.668;2023-05-13T11:37:08;101629.59;;;22.14;26.58
12172;BME280;6149;52.418;13.668;2023-05-13T11:39:38;101644.03;;;22.13;27.46
12172;BME280;6149;52.418;13.668;2023-05-13T11:42:06;101622.16;;;22.06;26.98
12172;BME280;6149;52.418;13.668;2023-05-13T11:44:34;101630.69;;;22.11;27.81
12172;BME280;6149;52.418;13.668;2023-05-13T11:47:04;101627.09;;;22.22;26.12
12172;BME280;6149;52.418;13.668;2023-05-13T11:49:39;101621.91;;;22.09;26.91
12172;BME280;6149;52.418;13.668;2023-05-13T11:52:08;101625.84;;;22.05;26.75
12172;BME280;6149;52.418;13.668;2023-05-13T11:54:42;101622.03;;;21.96;26.73
12172;BME280;6149;52.418;13.668;2023-05-13T11:57:22;101625.25;;;22.01;27.53
12172;BME280;6149;52.418;13.668;2023-05-13T11:59:51;101616.47;;;21.88;27.52
12172;BME280;6149;52.418;13.668;2023-05-13T12:02:22;101638.56;;;22.03;27.73
12172;BME280;6149;52.418;13.668;2023-05-13T12:04:52;101640.38;;;22.14;27.57
12172;BME280;6149;52.418;13.668;2023-05-13T12:07:21;101629.50;;;22.04;27.18
12172;BME280;6149;52.418;13.668;2023-05-13T12:09:48;101626.84;;;21.93;26.90
12172;BME280;6149;52.418;13.668;2023-05-13T12:12:15;101611.53;;;21.93;27.49
12172;BME280;6149;52.418;13.668;2023-05-13T12:14:43;101609.06;;;22.01;28.00
12172;BME280;6149;52.418;13.668;2023-05-13T12:17:11;101608.50;;;22.19;28.07
12172;BME280;6149;52.418;13.668;2023-05-13T12:19:39;101607.69;;;22.07;28.78
12172;BME280;6149;52.418;13.668;2023-05-13T12:24:36;101604.16;;;22.27;28.07
12172;BME280;6149;52.418;13.668;2023-05-13T12:27:04;101607.69;;;22.28;28.73
12172;BME280;6149;52.418;13.668;2023-05-13T12:29:39;101610.53;;;22.06;28.52
12172;BME280;6149;52.418;13.668;2023-05-13T12:32:08;101618.22;;;22.10;27.93
12172;BME280;6149;52.418;13.668;2023-05-13T12:34:38;101609.88;;;22.13;28.56
12172;BME280;6149;52.418;13.668;2023-05-13T12:37:12;101613.88;;;22.19;28.70
12172;BME280;6149;52.418;13.668;2023-05-13T12:39:40;101592.53;;;22.06;28.92
12172;BME280;6149;52.418;13.668;2023-05-13T12:42:13;101611.00;;;21.99;29.46
12172;BME280;6149;52.418;13.668;2023-05-13T12:44:43;101611.13;;;21.98;29.11
12172;BME280;6149;52.418;13.668;2023-05-13T12:47:10;101619.78;;;22.13;30.64
12172;BME280;6149;52.418;13.668;2023-05-13T12:49:52;101609.00;;;22.33;29.57
12172;BME280;6149;52.418;13.668;2023-05-13T12:52:21;101618.97;;;22.63;30.38
12172;BME280;6149;52.418;13.668;2023-05-13T12:54:49;101603.78;;;22.72;29.44
12172;BME280;6149;52.418;13.668;2023-05-13T12:57:19;101615.56;;;22.71;29.21
12172;BME280;6149;52.418;13.668;2023-05-13T12:59:46;101611.75;;;22.74;29.34
12172;BME280;6149;52.418;13.668;2023-05-13T13:02:12;101604.25;;;22.77;29.81
12172;BME280;6149;52.418;13.668;2023-05-13T13:04:40;101603.53;;;22.75;28.50